Time;durP1;ratioP1;P1;durP2;ratioP2;P2;SDS_P1;SDS_P2;PMS_P1;PMS_P2;Temp;Humidity;BMP_temperature;BMP_pressure;BME280_temperature;BME280_humidity;BME280_pressure;Samples;Min_cycle;Max_cycle;Signal;HPM_P1;HPM_P2
2023/10/06 00:02:09;;;;;;;15.55;6.45;;;9.60;99.90;;;;;;5102237;27;20210;-86
2023/10/06 00:04:38;;;;;;;9.50;5.75;;;9.60;99.90;;;;;;5105581;28;20196;-86
2023/10/06 00:07:08;;;;;;;10.55;5.47;;;9.50;99.90;;;;;;5100919;28;20283;-86
2023/10/06 00:09:34;;;;;;;10.13;6.05;;;9.60;99.90;;;;;;5107540;28;20596;-86
2023/10/06 00:12:05;;;;;;;9.98;5.20;;;9.60;99.90;;;;;;5103203;27;20196;-86
2023/10/06 00:14:39;;;;;;;10.25;5.90;;;9.80;99.90;;;;;;5100205;28;20570;-86
2023/10/06 00:17:09;;;;;;;12.15;6.07;;;9.70;99.80;;;;;;5107944;28;20195;-86
2023/10/06 00:19:37;;;;;;;9.98;5.57;;;9.60;99.70;;;;;;5109422;27;20196;-86
2023/10/06 00:22:12;;;;;;;9.50;5.35;;;9.50;99.90;;;;;;5099965;28;20200;-86
2023/10/06 00:24:42;;;;;;;8.88;5.65;;;9.30;99.90;;;;;;5107460;28;20240;-86
2023/10/06 00:27:13;;;;;;;12.07;5.78;;;9.30;99.90;;;;;;5117792;27;20204;-86
2023/10/06 00:29:47;;;;;;;14.27;5.97;;;9.20;99.90;;;;;;5098988;27;20227;-86
2023/10/06 00:32:25;;;;;;;12.18;5.85;;;9.10;99.90;;;;;;5106147;27;20295;-86
2023/10/06 00:34:54;;;;;;;11.10;5.50;;;9.00;99.90;;;;;;5101675;27;20192;-86
2023/10/06 00:37:23;;;;;;;11.77;5.68;;;9.00;99.90;;;;;;5106123;28;20220;-86
2023/10/06 00:39:54;;;;;;;11.10;5.50;;;9.00;99.90;;;;;;5112745;28;20199;-86
2023/10/06 00:42:22;;;;;;;11.20;5.55;;;9.10;99.90;;;;;;5100968;27;20193;-86
2023/10/06 00:44:51;;;;;;;10.00;5.75;;;9.00;99.90;;;;;;5108391;27;20567;-86
2023/10/06 00:47:21;;;;;;;10.02;5.55;;;8.90;99.90;;;;;;5115997;27;20568;-86
2023/10/06 00:49:48;;;;;;;13.10;5.40;;;8.90;99.90;;;;;;5109105;27;20212;-86
2023/10/06 00:52:15;;;;;;;9.93;5.55;;;8.80;99.90;;;;;;5107796;28;20212;-86
2023/10/06 00:54:43;;;;;;;10.30;5.32;;;8.80;99.90;;;;;;5105903;28;20195;-86
2023/10/06 00:57:12;;;;;;;9.93;5.15;;;8.70;99.90;;;;;;5109283;27;21048;-86
2023/10/06 00:59:41;;;;;;;11.45;5.80;;;8.70;99.90;;;;;;5113145;27;20675;-86
2023/10/06 01:02:11;;;;;;;11.45;5.50;;;8.60;99.90;;;;;;5102342;28;20192;-86
2023/10/06 01:04:44;;;;;;;11.40;5.03;;;8.60;99.90;;;;;;5110838;28;20249;-86
2023/10/06 01:07:12;;;;;;;8.30;4.65;;;8.70;99.90;;;;;;5119271;27;20329;-86
2023/10/06 01:09:39;;;;;;;10.43;5.22;;;8.60;99.90;;;;;;5126415;27;20280;-86
2023/10/06 01:12:13;;;;;;;8.95;5.00;;;8.50;99.90;;;;;;5100846;28;20656;-86
2023/10/06 01:14:42;;;;;;;8.98;5.22;;;8.50;99.90;;;;;;5116178;28;20210;-86
2023/10/06 01:17:14;;;;;;;10.00;5.38;;;8.60;99.90;;;;;;5110997;28;20194;-86
2023/10/06 01:19:48;;;;;;;9.82;5.10;;;8.60;99.90;;;;;;5094377;28;20288;-86
2023/10/06 01:22:24;;;;;;;13.02;5.60;;;8.60;99.90;;;;;;5104839;27;20211;-86
2023/10/06 01:24:54;;;;;;;10.05;4.80;;;8.50;99.90;;;;;;5105196;28;20200;-86
2023/10/06 01:27:25;;;;;;;7.68;4.80;;;8.40;99.90;;;;;;5098692;28;20199;-86
2023/10/06 01:30:07;;;;;;;8.13;4.70;;;8.40;99.90;;;;;;5110751;28;20223;-86
2023/10/06 01:32:34;;;;;;;8.25;4.70;;;8.40;99.90;;;;;;5104574;28;20199;-86
2023/10/06 01:35:01;;;;;;;11.60;5.22;;;8.40;99.90;;;;;;5107862;27;20202;-86
2023/10/06 01:37:30;;;;;;;7.20;4.90;;;8.30;99.90;;;;;;5112629;27;20212;-86
2023/10/06 01:40:07;;;;;;;8.25;4.50;;;8.30;99.90;;;;;;5103933;27;20199;-86
2023/10/06 01:42:35;;;;;;;7.07;4.40;;;8.30;99.90;;;;;;5107051;27;20196;-86
2023/10/06 01:45:13;;;;;;;7.90;4.85;;;8.30;99.90;;;;;;5105669;27;20272;-86
2023/10/06 01:47:40;;;;;;;8.88;4.90;;;8.40;99.90;;;;;;5100914;28;20193;-86
2023/10/06 01:50:09;;;;;;;11.55;4.57;;;8.40;99.90;;;;;;5108313;27;20220;-86
2023/10/06 01:52:40;;;;;;;8.50;4.65;;;8.30;99.90;;;;;;5113850;27;20255;-86
2023/10/06 01:55:09;;;;;;;9.95;4.90;;;8.30;99.90;;;;;;5113018;28;20207;-86
2023/10/06 01:57:36;;;;;;;9.40;4.18;;;8.20;99.90;;;;;;5106094;27;20208;-86
2023/10/06 02:00:06;;;;;;;9.32;4.90;;;8.20;99.90;;;;;;5094318;28;20228;-86
2023/10/06 02:02:33;;;;;;;7.72;4.50;;;8.20;99.90;;;;;;5106751;28;20200;-86
2023/10/06 02:05:05;;;;;;;7.97;4.30;;;8.30;99.90;;;;;;5104515;28;20283;-86
2023/10/06 02:07:35;;;;;;;5.55;4.10;;;8.30;99.90;;;;;;5114205;27;20200;-86
2023/10/06 02:10:08;;;;;;;8.23;4.55;;;8.20;99.90;;;;;;5110082;27;20224;-86
2023/10/06 02:12:38;;;;;;;6.93;4.40;;;8.20;99.90;;;;;;5104824;28;20266;-86
2023/10/06 02:15:10;;;;;;;6.63;4.20;;;8.20;99.90;;;;;;5102293;28;20207;-86
2023/10/06 02:17:37;;;;;;;7.82;4.38;;;8.20;99.90;;;;;;5103105;27;20709;-85
2023/10/06 02:20:12;;;;;;;9.95;4.65;;;8.20;99.90;;;;;;5098403;27;20203;-86
2023/10/06 02:22:38;;;;;;;9.63;4.65;;;8.20;99.90;;;;;;5113757;27;20222;-86
2023/10/06 02:25:13;;;;;;;9.98;4.40;;;8.20;99.90;;;;;;5100305;27;20197;-86
2023/10/06 02:27:46;;;;;;;7.15;4.65;;;8.20;99.90;;;;;;5122499;27;20199;-86
2023/10/06 02:30:15;;;;;;;6.95;4.45;;;8.10;99.90;;;;;;5099940;27;20216;-86
2023/10/06 02:32:43;;;;;;;9.68;4.53;;;8.00;99.90;;;;;;5107894;28;20246;-86
2023/10/06 02:35:12;;;;;;;7.95;4.70;;;8.00;99.90;;;;;;5103440;27;20188;-86
2023/10/06 02:37:39;;;;;;;7.85;4.72;;;7.90;99.90;;;;;;5091296;28;20622;-86
2023/10/06 02:40:12;;;;;;;9.50;4.75;;;7.90;99.90;;;;;;5094382;28;20192;-86
2023/10/06 02:42:45;;;;;;;10.80;4.82;;;7.90;99.90;;;;;;5103201;28;20719;-86
2023/10/06 02:45:16;;;;;;;8.02;4.38;;;7.90;99.90;;;;;;5104065;27;20280;-86
2023/10/06 02:47:43;;;;;;;9.30;4.53;;;7.90;99.90;;;;;;5105967;27;20232;-86
2023/10/06 02:50:17;;;;;;;7.88;4.55;;;7.90;99.90;;;;;;5118404;27;20214;-86
2023/10/06 02:52:46;;;;;;;7.22;4.28;;;7.90;99.90;;;;;;5108745;27;20594;-86
2023/10/06 02:55:19;;;;;;;6.63;4.32;;;7.80;99.90;;;;;;5108813;27;20198;-86
2023/10/06 02:57:50;;;;;;;10.80;4.32;;;7.70;99.90;;;;;;5123943;27;20661;-86
2023/10/06 03:00:32;;;;;;;8.80;4.75;;;7.70;99.90;;;;;;5123340;27;20195;-86
2023/10/06 03:03:11;;;;;;;8.57;4.60;;;7.70;99.90;;;;;;5110346;28;20475;-86
2023/10/06 03:05:40;;;;;;;7.65;3.90;;;7.60;99.90;;;;;;5092420;28;20635;-86
2023/10/06 03:08:09;;;;;;;8.02;4.35;;;7.70;99.90;;;;;;5095772;28;20212;-86
2023/10/06 03:10:43;;;;;;;7.43;4.00;;;7.70;99.90;;;;;;5120364;27;20307;-86
2023/10/06 03:13:13;;;;;;;7.65;4.50;;;7.60;99.90;;;;;;5121934;27;20196;-86
2023/10/06 03:15:45;;;;;;;7.88;4.22;;;7.70;99.90;;;;;;5105518;27;20200;-86
2023/10/06 03:18:13;;;;;;;6.65;4.10;;;7.80;99.90;;;;;;5122712;27;20223;-86
2023/10/06 03:20:46;;;;;;;6.38;4.28;;;7.70;99.90;;;;;;5094047;28;20251;-86
2023/10/06 03:23:24;;;;;;;8.55;3.95;;;7.70;99.90;;;;;;5104001;28;20201;-86
2023/10/06 03:25:54;;;;;;;8.68;3.95;;;7.60;99.90;;;;;;5110694;27;20203;-86
2023/10/06 03:28:24;;;;;;;9.43;4.07;;;7.60;99.90;;;;;;5118364;27;20200;-86
2023/10/06 03:30:52;;;;;;;8.20;4.63;;;7.50;99.90;;;;;;5111269;27;20231;-86
2023/10/06 03:33:20;;;;;;;10.23;4.30;;;7.50;99.90;;;;;;5108215;27;20206;-86
2023/10/06 03:35:47;;;;;;;7.00;4.13;;;7.40;99.90;;;;;;5102695;28;20200;-86
2023/10/06 03:41:18;;;;;;;9.15;4.07;;;7.30;99.90;;;;;;5114080;27;20228;-86
2023/10/06 03:43:49;;;;;;;8.45;4.38;;;7.30;99.90;;;;;;5101134;27;20664;-86
2023/10/06 03:46:18;;;;;;;6.68;4.25;;;7.30;99.90;;;;;;5105831;27;20199;-86
2023/10/06 03:48:46;;;;;;;7.45;4.20;;;7.40;99.90;;;;;;5099740;27;20648;-86
2023/10/06 03:51:13;;;;;;;8.73;4.50;;;7.50;99.90;;;;;;5112907;27;20227;-86
2023/10/06 03:53:40;;;;;;;6.55;4.20;;;7.50;99.90;;;;;;5110271;27;20207;-86
2023/10/06 03:56:08;;;;;;;7.82;4.32;;;7.40;99.90;;;;;;5107550;27;20652;-86
2023/10/06 03:58:35;;;;;;;7.65;4.47;;;7.40;99.90;;;;;;5111405;27;20203;-86
2023/10/06 04:01:08;;;;;;;12.70;4.28;;;7.30;99.90;;;;;;5108042;27;20192;-86
2023/10/06 04:03:35;;;;;;;5.60;3.92;;;7.30;99.90;;;;;;5110882;27;20196;-86
2023/10/06 04:06:03;;;;;;;6.93;4.13;;;7.30;99.90;;;;;;5102893;27;20211;-86
2023/10/06 04:08:30;;;;;;;7.53;4.30;;;7.30;99.90;;;;;;5100837;28;20204;-86
2023/10/06 04:10:58;;;;;;;8.75;4.47;;;7.20;99.90;;;;;;5105564;28;20234;-86
2023/10/06 04:13:28;;;;;;;5.25;3.88;;;7.30;99.90;;;;;;5117598;27;20204;-86
2023/10/06 04:15:57;;;;;;;6.72;4.00;;;7.30;99.90;;;;;;5097390;28;20208;-86
2023/10/06 04:18:25;;;;;;;10.15;4.13;;;7.30;99.90;;;;;;5112073;28;20200;-86
2023/10/06 04:20:54;;;;;;;6.90;4.25;;;7.30;99.90;;;;;;5114970;27;20192;-86
2023/10/06 04:23:22;;;;;;;8.65;4.60;;;7.30;99.90;;;;;;5113635;27;20203;-86
2023/10/06 04:25:54;;;;;;;6.88;4.28;;;7.30;99.90;;;;;;5113701;27;20215;-86
2023/10/06 04:28:22;;;;;;;8.65;4.30;;;7.30;99.90;;;;;;5106265;28;20199;-86
2023/10/06 04:30:51;;;;;;;8.70;4.32;;;7.30;99.90;;;;;;5100316;27;20273;-86
2023/10/06 04:33:19;;;;;;;7.60;4.45;;;7.30;99.90;;;;;;5099328;28;20262;-86
2023/10/06 04:35:52;;;;;;;7.22;4.30;;;7.40;99.90;;;;;;5099341;27;20323;-85
2023/10/06 04:38:19;;;;;;;6.03;4.03;;;7.30;99.90;;;;;;5103036;27;20574;-86
2023/10/06 04:40:47;;;;;;;6.43;4.30;;;7.30;99.90;;;;;;5105177;28;20200;-86
2023/10/06 04:43:14;;;;;;;8.02;4.25;;;7.20;99.90;;;;;;5119309;27;20199;-86
2023/10/06 04:45:41;;;;;;;8.80;4.45;;;7.20;99.90;;;;;;5103574;27;20207;-86
2023/10/06 04:48:09;;;;;;;7.72;4.65;;;7.20;99.90;;;;;;5101638;27;20193;-86
2023/10/06 04:50:36;;;;;;;6.53;4.43;;;7.20;99.90;;;;;;5105713;27;20227;-86
2023/10/06 04:53:05;;;;;;;8.55;4.93;;;7.20;99.90;;;;;;5096424;28;20198;-86
2023/10/06 04:55:52;;;;;;;11.30;5.18;;;7.20;99.90;;;;;;5097301;28;20569;-86
2023/10/06 04:58:19;;;;;;;7.97;4.28;;;7.20;99.90;;;;;;5104780;28;20196;-86
2023/10/06 05:00:52;;;;;;;10.02;4.10;;;7.10;99.90;;;;;;5102577;28;20312;-86
2023/10/06 05:03:21;;;;;;;7.32;4.10;;;7.10;99.90;;;;;;5113253;28;20267;-86
2023/10/06 05:05:50;;;;;;;11.20;4.70;;;7.00;99.90;;;;;;5101894;28;20201;-86
2023/10/06 05:08:17;;;;;;;8.70;4.65;;;7.00;99.90;;;;;;5109043;28;20195;-86
2023/10/06 05:10:43;;;;;;;10.43;5.22;;;7.10;99.90;;;;;;5100978;28;20688;-86
2023/10/06 05:13:10;;;;;;;8.77;4.82;;;7.10;99.90;;;;;;5107064;28;20200;-86
2023/10/06 05:15:41;;;;;;;6.95;4.50;;;7.20;99.90;;;;;;5106022;28;20196;-87
2023/10/06 05:18:12;;;;;;;9.73;5.68;;;7.30;99.90;;;;;;5115375;27;20293;-86
2023/10/06 05:20:42;;;;;;;8.43;4.85;;;7.30;99.90;;;;;;5101521;28;20204;-91
2023/10/06 05:23:09;;;;;;;7.25;4.90;;;7.30;99.90;;;;;;5110986;27;20192;-86
2023/10/06 05:25:36;;;;;;;10.10;5.10;;;7.30;99.90;;;;;;5104659;28;20206;-84
2023/10/06 05:28:04;;;;;;;7.25;4.65;;;7.30;99.90;;;;;;5097533;28;20192;-87
2023/10/06 05:30:32;;;;;;;10.18;4.82;;;7.20;99.90;;;;;;5109459;28;20215;-86
2023/10/06 05:32:59;;;;;;;8.73;4.80;;;7.20;99.90;;;;;;5108571;28;20257;-86
2023/10/06 05:35:27;;;;;;;8.57;4.97;;;7.20;99.90;;;;;;5096216;28;20197;-86
2023/10/06 05:37:55;;;;;;;9.98;5.13;;;7.10;99.90;;;;;;5096285;28;20204;-87
2023/10/06 05:40:22;;;;;;;8.55;4.68;;;7.20;99.90;;;;;;5092161;28;20235;-87
2023/10/06 05:42:50;;;;;;;9.15;5.20;;;7.30;99.90;;;;;;5100625;28;20196;-87
2023/10/06 05:45:18;;;;;;;9.95;5.05;;;7.30;99.90;;;;;;5102708;28;20629;-87
2023/10/06 05:47:46;;;;;;;11.70;5.05;;;7.40;99.90;;;;;;5098168;28;20196;-86
2023/10/06 05:50:18;;;;;;;7.65;4.60;;;7.40;99.90;;;;;;5100131;28;20195;-87
2023/10/06 05:52:51;;;;;;;11.77;5.40;;;7.40;99.90;;;;;;5100556;28;20694;-87
2023/10/06 05:55:20;;;;;;;11.38;5.40;;;7.40;99.90;;;;;;5100389;27;20580;-87
2023/10/06 05:57:52;;;;;;;8.98;4.70;;;7.40;99.90;;;;;;5105823;28;20668;-87
2023/10/06 06:00:24;;;;;;;8.85;5.00;;;7.40;99.90;;;;;;5096442;28;20200;-87
2023/10/06 06:02:53;;;;;;;12.02;5.28;;;7.50;99.90;;;;;;5108613;28;20207;-87
2023/10/06 06:05:20;;;;;;;10.38;4.95;;;7.50;99.90;;;;;;5105688;28;20199;-87
2023/10/06 06:07:51;;;;;;;8.85;5.05;;;7.60;99.90;;;;;;5105822;28;20641;-87
2023/10/06 06:10:21;;;;;;;9.48;5.03;;;7.60;99.90;;;;;;5097834;28;20246;-87
2023/10/06 06:12:48;;;;;;;11.73;5.43;;;7.60;99.90;;;;;;5108414;28;20196;-86
2023/10/06 06:15:16;;;;;;;9.55;5.63;;;7.70;99.90;;;;;;5094874;28;20208;-87
2023/10/06 06:17:44;;;;;;;8.52;5.40;;;7.80;99.90;;;;;;5114513;27;20200;-86
2023/10/06 06:20:14;;;;;;;9.68;5.03;;;7.80;99.90;;;;;;5110626;28;20227;-87
2023/10/06 06:22:47;;;;;;;10.75;5.22;;;7.90;99.90;;;;;;5110110;27;20284;-87
2023/10/06 06:25:15;;;;;;;11.27;5.03;;;7.90;99.90;;;;;;5105698;27;20203;-86
2023/10/06 06:27:43;;;;;;;10.98;5.18;;;8.00;99.90;;;;;;5114015;27;20203;-85
2023/10/06 06:30:12;;;;;;;12.70;5.50;;;8.00;99.90;;;;;;5106585;28;20220;-86
2023/10/06 06:32:39;;;;;;;9.18;5.43;;;8.10;99.90;;;;;;5105204;28;20220;-87
2023/10/06 06:35:08;;;;;;;10.40;5.40;;;8.20;99.90;;;;;;5100922;27;20192;-87
2023/10/06 06:37:35;;;;;;;11.63;5.15;;;8.30;99.90;;;;;;5097067;28;20190;-87
2023/10/06 06:40:02;;;;;;;10.65;6.00;;;8.40;99.90;;;;;;5105615;28;20257;-87
2023/10/06 06:42:28;;;;;;;11.07;5.88;;;8.40;99.90;;;;;;5099754;28;20203;-87
2023/10/06 06:45:00;;;;;;;12.48;5.82;;;8.50;99.90;;;;;;5113600;27;20194;-86
2023/10/06 06:47:27;;;;;;;10.07;5.05;;;8.50;99.90;;;;;;5105863;28;20279;-88
2023/10/06 06:49:55;;;;;;;9.75;5.25;;;8.70;99.90;;;;;;5098948;27;20200;-90
2023/10/06 06:52:22;;;;;;;10.55;5.50;;;8.90;99.90;;;;;;5099300;28;20232;-89
2023/10/06 06:54:49;;;;;;;14.13;6.13;;;9.00;99.90;;;;;;5112231;27;20207;-90
2023/10/06 06:57:17;;;;;;;13.20;5.50;;;9.10;99.90;;;;;;5105945;28;20224;-88
2023/10/06 06:59:44;;;;;;;9.77;5.32;;;9.20;99.90;;;;;;5099998;28;20211;-88
2023/10/06 07:02:13;;;;;;;13.60;5.65;;;9.30;99.90;;;;;;5102449;27;20203;-87
2023/10/06 07:04:41;;;;;;;12.02;5.75;;;9.40;99.90;;;;;;5103273;27;20196;-89
2023/10/06 07:07:08;;;;;;;11.32;5.55;;;9.40;99.90;;;;;;5109139;27;20556;-89
2023/10/06 07:09:35;;;;;;;13.23;5.70;;;9.50;99.90;;;;;;5107135;28;20202;-89
2023/10/06 07:12:03;;;;;;;11.13;4.90;;;9.60;99.90;;;;;;5102114;28;20213;-89
2023/10/06 07:14:30;;;;;;;10.98;5.43;;;9.70;99.90;;;;;;5102663;28;20196;-89
2023/10/06 07:16:57;;;;;;;12.05;5.50;;;9.90;99.90;;;;;;5125286;27;20593;-93
2023/10/06 07:22:07;;;;;;;8.73;4.95;;;10.00;99.90;;;;;;5087118;28;20200;-90
2023/10/06 07:24:34;;;;;;;8.80;5.20;;;10.20;99.90;;;;;;5080315;27;20199;-89
2023/10/06 07:27:01;;;;;;;10.80;5.80;;;10.30;99.90;;;;;;5083831;28;20260;-89
2023/10/06 07:29:28;;;;;;;13.45;6.05;;;10.40;99.90;;;;;;5099143;28;20223;-88
2023/10/06 07:31:55;;;;;;;10.30;5.40;;;10.50;99.80;;;;;;5107007;27;20219;-89
2023/10/06 07:34:23;;;;;;;13.68;5.55;;;10.60;99.70;;;;;;5092867;28;20207;-89
2023/10/06 07:36:51;;;;;;;13.75;5.65;;;10.80;99.40;;;;;;5105850;28;20192;-89
2023/10/06 07:39:20;;;;;;;10.63;5.45;;;10.90;99.20;;;;;;5104222;27;20215;-89
2023/10/06 07:41:47;;;;;;;10.45;5.47;;;11.10;99.00;;;;;;5117168;27;20215;-90
2023/10/06 07:44:15;;;;;;;8.63;5.25;;;11.30;98.90;;;;;;5106016;28;20218;-89
2023/10/06 07:46:42;;;;;;;10.43;5.50;;;11.40;98.30;;;;;;5106601;27;20200;-89
2023/10/06 07:49:09;;;;;;;9.52;5.00;;;11.50;98.10;;;;;;5097923;27;20570;-90
2023/10/06 07:51:36;;;;;;;12.68;5.38;;;11.60;98.10;;;;;;5108011;28;20585;-89
2023/10/06 07:54:05;;;;;;;7.93;4.72;;;11.80;98.10;;;;;;5105119;27;20195;-89
2023/10/06 07:56:36;;;;;;;7.43;5.07;;;11.80;97.80;;;;;;5092128;28;20210;-92
2023/10/06 07:59:04;;;;;;;10.50;4.53;;;11.90;97.80;;;;;;5110222;27;20275;-90
2023/10/06 08:01:32;;;;;;;7.68;4.68;;;12.00;97.90;;;;;;5107909;27;20383;-89
2023/10/06 08:03:59;;;;;;;8.68;5.03;;;12.10;98.00;;;;;;5089098;28;20401;-90
2023/10/06 08:06:27;;;;;;;9.80;4.60;;;12.30;97.80;;;;;;5106476;27;20214;-89
2023/10/06 08:08:54;;;;;;;8.27;4.28;;;12.40;97.00;;;;;;5103487;28;20190;-91
2023/10/06 08:11:25;;;;;;;7.38;4.60;;;12.70;96.30;;;;;;5100353;27;20232;-90
2023/10/06 08:13:54;;;;;;;7.05;4.55;;;12.80;96.40;;;;;;5101363;27;20207;-90
2023/10/06 08:16:21;;;;;;;9.93;5.05;;;12.80;96.40;;;;;;5101238;27;20291;-90
2023/10/06 08:18:48;;;;;;;9.00;5.30;;;12.90;96.40;;;;;;5101783;28;20694;-90
2023/10/06 08:21:16;;;;;;;9.88;4.53;;;13.00;95.90;;;;;;5103742;28;20564;-91
2023/10/06 08:23:46;;;;;;;9.50;5.15;;;13.10;95.40;;;;;;5095433;28;20200;-90
2023/10/06 08:26:14;;;;;;;8.95;4.75;;;13.30;96.00;;;;;;5118286;27;20199;-90
2023/10/06 08:31:24;;;;;;;10.10;4.97;;;13.40;95.50;;;;;;5099523;28;20236;-89
2023/10/06 08:33:51;;;;;;;10.02;5.30;;;13.50;95.60;;;;;;5105254;27;20200;-89
2023/10/06 08:36:18;;;;;;;13.85;5.50;;;13.60;95.40;;;;;;5101709;27;20196;-89
2023/10/06 08:38:46;;;;;;;7.72;4.82;;;13.70;94.20;;;;;;5102040;28;20197;-90
2023/10/06 08:41:15;;;;;;;9.02;4.93;;;13.90;94.20;;;;;;5094766;28;20280;-90
2023/10/06 08:46:53;;;;;;;8.93;5.10;;;14.30;92.90;;;;;;5108744;27;20250;-90
2023/10/06 08:49:20;;;;;;;7.32;4.72;;;14.40;92.60;;;;;;5109872;27;20602;-89
2023/10/06 08:51:50;;;;;;;10.10;4.57;;;14.50;92.60;;;;;;5082716;28;20221;-88
2023/10/06 08:54:19;;;;;;;8.48;4.50;;;14.60;93.40;;;;;;5099266;28;20195;-88
2023/10/06 08:56:46;;;;;;;7.22;4.53;;;14.80;91.40;;;;;;5105895;27;20203;-88
2023/10/06 08:59:16;;;;;;;7.03;4.10;;;15.10;91.80;;;;;;5108023;27;20200;-88
2023/10/06 09:01:44;;;;;;;7.57;4.22;;;15.50;89.10;;;;;;5101678;28;20196;-89
2023/10/06 09:04:11;;;;;;;11.88;4.47;;;15.60;88.70;;;;;;5104288;28;20611;-88
2023/10/06 09:07:09;;;;;;;8.65;5.03;;;16.00;84.10;;;;;;5098965;28;20215;-88
2023/10/06 09:09:37;;;;;;;7.28;4.13;;;16.80;76.10;;;;;;5103915;28;20200;-88
2023/10/06 09:12:04;;;;;;;8.65;4.25;;;17.40;69.10;;;;;;5099851;28;20879;-88
2023/10/06 09:14:33;;;;;;;9.07;4.22;;;18.30;60.10;;;;;;5106881;28;20918;-89
2023/10/06 09:17:02;;;;;;;6.40;4.25;;;19.80;42.90;;;;;;5104048;28;20541;-90
2023/10/06 09:19:47;;;;;;;7.35;4.00;;;21.00;32.90;;;;;;5096187;28;20249;-85
2023/10/06 09:22:16;;;;;;;6.82;4.38;;;22.00;26.40;;;;;;5101496;28;20201;-89
2023/10/06 09:24:55;;;;;;;6.40;4.50;;;23.00;21.70;;;;;;5101832;27;20195;-89
2023/10/06 09:27:25;;;;;;;8.27;4.78;;;23.70;17.90;;;;;;5103285;28;20200;-89
2023/10/06 09:30:00;;;;;;;7.40;4.57;;;23.10;19.80;;;;;;5098257;28;20281;-90
2023/10/06 09:32:27;;;;;;;6.72;4.47;;;24.50;17.10;;;;;;5099825;28;20587;-89
2023/10/06 09:34:57;;;;;;;7.20;5.32;;;25.00;17.00;;;;;;5104739;28;20196;-89
2023/10/06 09:37:24;;;;;;;7.85;4.53;;;25.80;14.50;;;;;;5107390;28;20203;-87
2023/10/06 09:39:58;;;;;;;8.85;4.82;;;25.70;14.50;;;;;;5100204;28;20203;-90
2023/10/06 09:42:28;;;;;;;6.88;5.05;;;25.80;14.50;;;;;;5106303;28;20203;-88
2023/10/06 09:45:11;;;;;;;7.63;5.38;;;25.50;14.40;;;;;;5100924;28;20192;-88
2023/10/06 09:47:46;;;;;;;6.43;4.93;;;25.00;14.20;;;;;;5110511;28;20191;-88
2023/10/06 09:50:18;;;;;;;5.50;4.32;;;25.00;14.20;;;;;;5107387;27;20251;-90
2023/10/06 09:52:47;;;;;;;6.55;4.88;;;24.40;15.90;;;;;;5098551;28;20228;-90
2023/10/06 09:55:17;;;;;;;7.65;5.18;;;24.70;14.00;;;;;;5107467;27;20200;-89
2023/10/06 09:57:48;;;;;;;6.57;4.90;;;24.00;15.70;;;;;;5104478;27;20223;-88
2023/10/06 10:00:19;;;;;;;5.70;5.10;;;24.20;17.10;;;;;;5111631;28;20195;-88
2023/10/06 10:02:47;;;;;;;6.47;5.10;;;23.50;17.30;;;;;;5105935;27;20204;-90
2023/10/06 10:05:18;;;;;;;9.63;5.45;;;23.70;17.30;;;;;;5110980;27;20608;-91
2023/10/06 10:07:46;;;;;;;5.30;4.40;;;23.10;17.00;;;;;;5105401;27;21129;-90
2023/10/06 10:10:14;;;;;;;7.68;5.63;;;23.90;16.90;;;;;;5110913;27;20206;-91
2023/10/06 10:12:59;;;;;;;6.40;4.65;;;24.00;16.90;;;;;;5103054;27;20224;-91
2023/10/06 10:15:37;;;;;;;6.05;4.95;;;24.60;15.20;;;;;;5106767;27;20208;-90
2023/10/06 10:18:13;;;;;;;6.13;4.70;;;25.10;14.20;;;;;;5102442;28;20192;-91
2023/10/06 10:20:40;;;;;;;6.28;4.80;;;25.10;14.20;;;;;;5100655;28;20564;-91
2023/10/06 10:23:08;;;;;;;6.78;4.93;;;24.40;15.90;;;;;;5103673;28;20217;-90
2023/10/06 10:25:36;;;;;;;7.07;5.22;;;23.90;17.40;;;;;;5101169;28;20323;-91
2023/10/06 10:28:19;;;;;;;5.45;4.70;;;23.90;17.90;;;;;;5100795;28;20586;-91
2023/10/06 10:30:55;;;;;;;5.00;4.45;;;23.80;16.60;;;;;;5100707;27;20725;-90
2023/10/06 10:33:22;;;;;;;6.40;4.78;;;23.30;17.50;;;;;;5100626;27;20235;-91
2023/10/06 10:36:20;;;;;;;6.05;4.72;;;22.70;18.40;;;;;;5103842;28;20196;-91
2023/10/06 10:39:04;;;;;;;7.53;5.22;;;22.60;18.40;;;;;;5108222;28;20206;-90
2023/10/06 10:41:36;;;;;;;7.05;5.32;;;23.00;17.70;;;;;;5098470;28;20200;-89
2023/10/06 10:44:05;;;;;;;7.45;5.18;;;22.80;19.30;;;;;;5100771;28;20199;-89
2023/10/06 10:46:41;;;;;;;9.40;5.10;;;22.40;19.40;;;;;;5098832;28;20195;-89
2023/10/06 10:49:10;;;;;;;5.80;4.30;;;22.10;19.30;;;;;;5111571;28;20714;-89
2023/10/06 10:51:50;;;;;;;6.97;4.88;;;22.40;19.20;;;;;;5101995;27;20227;-90
2023/10/06 10:54:21;;;;;;;9.38;5.35;;;24.00;15.40;;;;;;5095086;28;20207;-92
2023/10/06 10:56:51;;;;;;;7.13;4.45;;;23.40;13.30;;;;;;5108849;28;20199;-88
2023/10/06 10:59:18;;;;;;;10.57;5.13;;;22.60;17.50;;;;;;5104464;28;20195;-86
2023/10/06 11:01:57;;;;;;;6.70;4.68;;;22.10;19.50;;;;;;5105589;28;20211;-87
2023/10/06 11:04:31;;;;;;;7.10;4.53;;;21.80;20.80;;;;;;5109657;27;20201;-88
2023/10/06 11:07:04;;;;;;;8.07;4.68;;;21.90;19.10;;;;;;5097048;28;20258;-88
2023/10/06 11:09:37;;;;;;;6.05;3.97;;;21.70;19.90;;;;;;5113406;27;20208;-88
2023/10/06 11:12:06;;;;;;;6.40;4.28;;;21.50;20.10;;;;;;5110290;28;20192;-88
2023/10/06 11:14:40;;;;;;;6.40;4.07;;;21.20;21.90;;;;;;5110109;27;20548;-88
2023/10/06 11:17:11;;;;;;;5.30;3.60;;;21.00;21.10;;;;;;5120826;27;20195;-87
2023/10/06 11:19:39;;;;;;;4.85;3.55;;;21.00;15.40;;;;;;5101343;28;20208;-86
2023/10/06 11:22:10;;;;;;;5.32;4.07;;;20.80;17.10;;;;;;5107050;27;20199;-86
2023/10/06 11:24:38;;;;;;;10.43;4.85;;;20.60;18.00;;;;;;5105354;27;20196;-86
2023/10/06 11:27:16;;;;;;;7.50;4.68;;;20.50;19.20;;;;;;5105182;28;20577;-88
2023/10/06 11:29:44;;;;;;;5.55;3.65;;;20.40;18.70;;;;;;5105247;27;20369;-88
2023/10/06 11:32:13;;;;;;;6.10;4.20;;;20.20;17.80;;;;;;5107290;27;20268;-88
2023/10/06 11:34:43;;;;;;;6.82;3.92;;;20.10;19.70;;;;;;5103117;27;20195;-87
2023/10/06 11:37:10;;;;;;;6.10;4.22;;;20.20;18.70;;;;;;5104227;27;20264;-90
2023/10/06 11:39:37;;;;;;;7.07;4.13;;;20.30;17.90;;;;;;5106750;27;20201;-88
2023/10/06 11:42:32;;;;;;;6.97;4.13;;;20.40;17.10;;;;;;5102191;27;20279;-88
2023/10/06 11:45:00;;;;;;;5.32;4.00;;;20.40;16.80;;;;;;5113977;27;20268;-88
2023/10/06 11:47:40;;;;;;;10.10;3.50;;;20.30;16.70;;;;;;5107917;28;20287;-86
2023/10/06 11:50:08;;;;;;;5.93;3.88;;;20.40;17.50;;;;;;5105025;27;20258;-85
2023/10/06 11:52:35;;;;;;;5.53;3.70;;;20.60;17.10;;;;;;5096294;28;20280;-85
2023/10/06 11:55:08;;;;;;;5.55;3.67;;;20.60;16.00;;;;;;5103229;27;20192;-85
2023/10/06 11:57:51;;;;;;;6.88;3.35;;;20.60;15.20;;;;;;5112960;27;20253;-85
2023/10/06 12:00:19;;;;;;;7.53;3.90;;;20.70;16.20;;;;;;5097226;28;20192;-88
2023/10/06 12:02:50;;;;;;;5.13;3.95;;;20.70;16.20;;;;;;5103324;27;20230;-88
2023/10/06 12:05:18;;;;;;;4.95;4.00;;;20.70;17.00;;;;;;5101719;28;20667;-87
2023/10/06 12:07:46;;;;;;;6.57;4.43;;;20.60;15.70;;;;;;5093951;28;20228;-85
2023/10/06 12:10:17;;;;;;;6.75;3.95;;;20.60;16.50;;;;;;5108546;27;20219;-85
2023/10/06 12:12:45;;;;;;;9.93;4.30;;;20.70;16.20;;;;;;5094726;28;20277;-85
2023/10/06 12:15:15;;;;;;;7.18;4.38;;;20.70;15.00;;;;;;5095041;27;20196;-85
2023/10/06 12:17:43;;;;;;;5.75;3.83;;;20.70;15.90;;;;;;5106299;28;20204;-85
2023/10/06 12:20:14;;;;;;;6.18;3.70;;;20.70;16.30;;;;;;5104985;28;20636;-85
2023/10/06 12:22:42;;;;;;;5.53;3.72;;;20.80;14.90;;;;;;5107752;27;20218;-85
2023/10/06 12:25:12;;;;;;;7.03;6.10;;;20.80;14.80;;;;;;5101898;28;20306;-87
2023/10/06 12:27:40;;;;;;;8.90;4.30;;;21.10;16.90;;;;;;5097407;28;20275;-84
2023/10/06 12:30:08;;;;;;;6.13;3.70;;;21.10;14.90;;;;;;5098275;28;20214;-84
2023/10/06 12:32:35;;;;;;;5.85;3.92;;;21.10;14.60;;;;;;5102444;27;20219;-84
2023/10/06 12:35:05;;;;;;;5.65;3.35;;;21.10;15.60;;;;;;5103756;28;20216;-84
2023/10/06 12:37:34;;;;;;;5.63;3.22;;;21.10;15.00;;;;;;5105701;27;20329;-84
2023/10/06 12:40:03;;;;;;;4.07;3.40;;;21.10;15.30;;;;;;5098982;27;20264;-84
2023/10/06 12:42:31;;;;;;;5.70;3.28;;;21.10;14.60;;;;;;5090741;28;20207;-84
2023/10/06 12:45:02;;;;;;;6.43;4.10;;;21.10;15.80;;;;;;5098735;27;20203;-84
2023/10/06 12:47:29;;;;;;;7.35;3.42;;;21.10;15.80;;;;;;5096102;28;20211;-84
2023/10/06 12:50:05;;;;;;;5.40;3.88;;;21.00;16.40;;;;;;5101441;28;20204;-85
2023/10/06 12:52:34;;;;;;;5.72;3.70;;;20.90;16.00;;;;;;5105751;27;20254;-85
2023/10/06 12:55:05;;;;;;;7.57;4.25;;;20.90;15.00;;;;;;5105834;28;20223;-85
2023/10/06 12:57:34;;;;;;;4.47;3.25;;;20.80;14.80;;;;;;5107380;27;20656;-88
2023/10/06 13:00:01;;;;;;;5.15;3.60;;;20.70;15.10;;;;;;5096334;28;20208;-86
2023/10/06 13:02:31;;;;;;;4.88;3.50;;;20.80;15.80;;;;;;5100358;28;20233;-86
2023/10/06 13:05:04;;;;;;;4.72;3.15;;;20.90;15.10;;;;;;5099633;28;20228;-84
2023/10/06 13:07:33;;;;;;;4.97;3.72;;;20.90;15.10;;;;;;5095133;28;20211;-84
2023/10/06 13:10:07;;;;;;;5.68;3.35;;;20.80;14.10;;;;;;5105597;28;20671;-84
2023/10/06 13:12:39;;;;;;;5.72;3.45;;;20.80;13.80;;;;;;5100937;28;20226;-83
2023/10/06 13:15:10;;;;;;;4.55;2.97;;;20.80;13.80;;;;;;5098146;28;20224;-83
2023/10/06 13:17:37;;;;;;;4.38;3.20;;;20.80;14.30;;;;;;5099673;28;20567;-84